메인 페이지
METAR-TAF:

METAR-TAF

공항 :

블랙풀, 잉글랜드

위도: 53-46N, 경도: 003-02W, 고도: 10m

현재 날씨관측

예보는 29분 전, 11:50시(UTC)에 발표되었습니다.
9kt
온도 17°C
습도 88%
기압 1007 hPa
시정 10km 이상
고도 800ft 상공 구름 조금
고도 1200ft 상공 구름 많음

METAR: EGNH 251150Z 27009KT 9999 FEW008 BKN012 17/15 Q1007

시각: 13:19 (12:19 UTC)

예보

예보는 1 시간 21분 전, 10:58시(UTC)에 발표되었습니다.
예보 대상 시간: 25일 12시부터 25일 20시까지 (UTC)
서남서11kt
시정 10km 이상
고도 1600ft 상공 구름 많음
확률 40% :
일시적
25일 12시부터 25일 14시까지 (UTC)
고도 900ft 상공 구름 많음
확률 30% :
일시적
25일 14시부터 25일 18시까지 (UTC)
시정: 7000m
고도 1200ft 상공 구름 많음
소나기,

TAF: EGNH 251058Z 2512/2520 25011KT 9999 BKN016 PROB40 TEMPO 2512/2514 BKN009 PROB30 TEMPO 2514/2518 7000 SHRA BKN012

4,000개 이상의 공항 관측 자료 및 예보 (METAR 및 TAF 보고).

지도상에서 검색 가능한 기상관측소가 노란 점과 빨간 점으로 표시되어 있습니다.

기상관측소 명을 보려면 표시 위로 마우스를 이동하세요.

날씨 관측과 예보를 보려면 클릭하세요.

지도 변경 : 확대하려면 엑스 표시가 있는 녹색 버튼, 축소하려면 빼기 표시가 있는 녹색 버튼, 다음 페이지의 지도를 보려면 녹색 화살표를 클릭하세요.


METAR-TAF: